Time;durP1;ratioP1;P1;durP2;ratioP2;P2;SDS_P1;SDS_P2;PMS_P1;PMS_P2;Temp;Humidity;BMP_temperature;BMP_pressure;BME280_temperature;BME280_humidity;BME280_pressure;Samples;Min_cycle;Max_cycle;Signal;HPM_P1;HPM_P2
2022/09/16 00:01:21;;;;;;;7.95;6.88;;;13.80;99.90;;;;;;5031884;28;20047;-77
2022/09/16 00:03:47;;;;;;;9.52;6.68;;;13.80;99.90;;;;;;5031125;28;20041;-77
2022/09/16 00:06:18;;;;;;;7.25;6.18;;;13.70;99.90;;;;;;5031238;28;20029;-77
2022/09/16 00:08:44;;;;;;;9.27;6.65;;;13.70;99.90;;;;;;5031390;28;20037;-77
2022/09/16 00:11:11;;;;;;;9.48;6.43;;;13.70;99.90;;;;;;5031737;28;20044;-78
2022/09/16 00:13:37;;;;;;;10.73;7.05;;;13.70;99.90;;;;;;5030765;28;20049;-77
2022/09/16 00:16:07;;;;;;;7.00;6.28;;;13.70;99.90;;;;;;5031363;28;20033;-77
2022/09/16 00:18:33;;;;;;;9.38;6.82;;;13.70;99.90;;;;;;5032011;28;20807;-78
2022/09/16 00:20:58;;;;;;;7.18;6.40;;;13.70;99.90;;;;;;5031195;28;20041;-77
2022/09/16 00:23:24;;;;;;;8.57;6.57;;;13.60;99.90;;;;;;5030779;28;20026;-77
2022/09/16 00:25:51;;;;;;;9.20;5.57;;;13.70;99.90;;;;;;5031320;28;20086;-77
2022/09/16 00:28:18;;;;;;;8.80;6.53;;;13.70;99.90;;;;;;5030833;28;20424;-77
2022/09/16 00:30:44;;;;;;;7.57;6.00;;;13.60;99.90;;;;;;5031686;28;20463;-77
2022/09/16 00:33:09;;;;;;;7.28;6.10;;;13.60;99.90;;;;;;5031005;28;20033;-77
2022/09/16 00:35:35;;;;;;;9.05;7.07;;;13.70;99.90;;;;;;5031022;28;20044;-77
2022/09/16 00:38:00;;;;;;;9.27;6.10;;;13.60;99.90;;;;;;5030917;28;20037;-77
2022/09/16 00:40:26;;;;;;;14.32;6.97;;;13.60;99.90;;;;;;5031170;28;20045;-77
2022/09/16 00:42:51;;;;;;;10.13;6.82;;;13.60;99.90;;;;;;5031110;28;20025;-77
2022/09/16 00:45:23;;;;;;;10.10;6.75;;;13.60;99.90;;;;;;5030637;28;20036;-77
2022/09/16 00:47:55;;;;;;;7.82;6.47;;;13.50;99.90;;;;;;5030850;28;20470;-77
2022/09/16 00:50:50;;;;;;;10.35;6.18;;;13.50;99.90;;;;;;5029826;28;20048;-80
2022/09/16 00:53:23;;;;;;;8.27;5.93;;;13.50;99.90;;;;;;5029845;28;20041;-80
2022/09/16 00:55:50;;;;;;;9.07;6.70;;;13.40;99.90;;;;;;5029827;28;20735;-80
2022/09/16 00:58:19;;;;;;;7.95;6.43;;;13.40;99.90;;;;;;5028302;28;20033;-80
2022/09/16 01:00:45;;;;;;;9.30;7.35;;;13.40;99.90;;;;;;5029146;28;20048;-80
2022/09/16 01:03:11;;;;;;;8.98;6.88;;;13.30;99.90;;;;;;5029639;28;20426;-80
2022/09/16 01:05:37;;;;;;;10.57;6.82;;;13.30;99.90;;;;;;5029700;28;20022;-80
2022/09/16 01:08:03;;;;;;;7.82;6.53;;;13.30;99.90;;;;;;5029352;28;20029;-80
2022/09/16 01:10:30;;;;;;;11.70;6.72;;;13.30;99.90;;;;;;5029559;28;20060;-80
2022/09/16 01:13:02;;;;;;;7.43;5.93;;;13.30;99.90;;;;;;5029149;28;20393;-80
2022/09/16 01:16:07;;;;;;;10.13;6.95;;;13.30;99.90;;;;;;5029354;28;20037;-80
2022/09/16 01:18:48;;;;;;;10.10;6.95;;;13.20;99.90;;;;;;5027620;28;20038;-80
2022/09/16 01:21:25;;;;;;;11.43;6.60;;;13.20;99.90;;;;;;5028475;28;20032;-80
2022/09/16 01:23:57;;;;;;;9.90;7.00;;;13.20;99.90;;;;;;5028926;28;20033;-80
2022/09/16 01:27:00;;;;;;;7.25;6.47;;;13.20;99.90;;;;;;5028894;28;20044;-80
2022/09/16 01:29:59;;;;;;;10.02;6.50;;;13.10;99.90;;;;;;5028503;28;20124;-80
2022/09/16 01:32:41;;;;;;;9.32;6.35;;;13.20;99.90;;;;;;5028177;28;20033;-80
2022/09/16 01:35:36;;;;;;;10.77;7.00;;;13.10;99.90;;;;;;5028833;28;20032;-80
2022/09/16 01:38:05;;;;;;;10.05;6.47;;;13.10;99.90;;;;;;5029322;28;20029;-80
2022/09/16 01:40:40;;;;;;;11.98;6.30;;;13.10;99.90;;;;;;5028975;28;20041;-80
2022/09/16 01:43:33;;;;;;;8.93;6.30;;;13.10;99.90;;;;;;5028549;28;20044;-80
2022/09/16 01:46:14;;;;;;;11.02;6.38;;;13.10;99.90;;;;;;5029332;28;20052;-79
2022/09/16 01:48:56;;;;;;;14.18;6.45;;;13.10;99.90;;;;;;5028876;28;20469;-80
2022/09/16 01:51:31;;;;;;;11.13;6.03;;;13.10;99.90;;;;;;5028998;28;20358;-80
2022/09/16 01:54:11;;;;;;;8.05;6.18;;;13.10;99.90;;;;;;5028929;28;20056;-80
2022/09/16 01:56:56;;;;;;;6.55;5.80;;;13.10;99.90;;;;;;5028270;28;20049;-80
2022/09/16 01:59:24;;;;;;;;;;;13.10;99.90;;;;;;5029320;28;20087;-76
2022/09/16 02:02:02;;;;;;;7.55;6.35;;;13.10;99.90;;;;;;5028526;28;20015;-76
2022/09/16 02:04:32;;;;;;;8.70;6.43;;;13.10;99.90;;;;;;5027913;28;20205;-77
2022/09/16 02:07:01;;;;;;;7.93;6.32;;;13.10;99.90;;;;;;5027817;28;20030;-76
2022/09/16 02:09:36;;;;;;;7.82;6.20;;;13.20;99.90;;;;;;5027430;28;20041;-76
2022/09/16 02:12:05;;;;;;;8.38;6.22;;;13.20;99.90;;;;;;5027646;28;20488;-76
2022/09/16 02:14:38;;;;;;;8.57;6.20;;;13.20;99.90;;;;;;5027757;28;20029;-76
2022/09/16 02:17:07;;;;;;;8.55;5.68;;;13.20;99.90;;;;;;5027253;28;20037;-76
2022/09/16 02:19:41;;;;;;;9.93;6.03;;;13.20;99.90;;;;;;5027070;28;20385;-76
2022/09/16 02:22:11;;;;;;;8.65;5.82;;;13.20;99.90;;;;;;5027542;28;20025;-76
2022/09/16 02:24:40;;;;;;;10.95;6.38;;;13.20;99.90;;;;;;5027776;28;20029;-76
2022/09/16 02:27:11;;;;;;;8.43;6.05;;;13.20;99.90;;;;;;5027896;28;20140;-76
2022/09/16 02:29:42;;;;;;;10.35;5.78;;;13.30;99.90;;;;;;5027717;28;20375;-76
2022/09/16 02:32:09;;;;;;;10.40;6.18;;;13.30;99.90;;;;;;5027905;28;20029;-76
2022/09/16 02:34:44;;;;;;;8.40;5.97;;;13.30;99.90;;;;;;5027336;28;20051;-76
2022/09/16 02:37:32;;;;;;;;;;;13.30;99.90;;;;;;5030063;28;20068;-76
2022/09/16 02:40:04;;;;;;;9.13;6.70;;;13.30;99.90;;;;;;5028194;28;19912;-76
2022/09/16 02:42:31;;;;;;;8.05;5.85;;;13.30;99.90;;;;;;5031903;28;20032;-76
2022/09/16 02:44:58;;;;;;;9.13;5.78;;;13.30;99.90;;;;;;5031460;28;20091;-76
2022/09/16 02:47:41;;;;;;;7.22;5.70;;;13.40;99.90;;;;;;5032040;28;20040;-76
2022/09/16 02:50:13;;;;;;;9.52;6.25;;;13.40;99.90;;;;;;5031276;28;20033;-76
2022/09/16 02:52:51;;;;;;;8.48;5.78;;;13.40;99.90;;;;;;5032024;28;20025;-76
2022/09/16 02:55:37;;;;;;;9.40;5.65;;;13.40;99.90;;;;;;5031323;28;20082;-77
2022/09/16 02:58:05;;;;;;;8.85;6.00;;;13.40;99.90;;;;;;5031665;28;20037;-76
2022/09/16 03:00:36;;;;;;;8.00;5.65;;;13.40;99.90;;;;;;5031858;28;20101;-76
2022/09/16 03:03:01;;;;;;;10.15;6.13;;;13.40;99.90;;;;;;5031239;28;20036;-76
2022/09/16 03:05:28;;;;;;;8.65;6.53;;;13.40;99.90;;;;;;5030686;28;20033;-76
2022/09/16 03:07:55;;;;;;;7.10;5.82;;;13.40;99.90;;;;;;5031806;28;20123;-76
2022/09/16 03:10:24;;;;;;;7.20;6.13;;;13.50;99.90;;;;;;5030952;28;20363;-76
2022/09/16 03:13:21;;;;;;;9.48;6.10;;;13.40;99.90;;;;;;5031052;28;20029;-76
2022/09/16 03:15:49;;;;;;;8.23;6.00;;;13.40;99.90;;;;;;5030714;28;20083;-76
2022/09/16 03:18:28;;;;;;;11.13;6.85;;;13.40;99.90;;;;;;5030527;28;20032;-76
2022/09/16 03:21:00;;;;;;;9.55;6.57;;;13.40;99.90;;;;;;5030989;28;20025;-76
2022/09/16 03:23:45;;;;;;;9.32;5.95;;;13.40;99.90;;;;;;5030914;28;20166;-76
2022/09/16 03:26:19;;;;;;;;;;;13.40;99.90;;;;;;5031935;28;20108;-77
2022/09/16 03:29:01;;;;;;;9.13;6.28;;;13.40;99.90;;;;;;5031946;28;19955;-77
2022/09/16 03:31:39;;;;;;;11.50;6.75;;;13.40;99.90;;;;;;5032640;28;20029;-77
2022/09/16 03:34:12;;;;;;;12.95;6.70;;;13.30;99.90;;;;;;5032180;28;20039;-77
2022/09/16 03:36:52;;;;;;;8.32;6.05;;;13.30;99.90;;;;;;5031793;28;20030;-77
2022/09/16 03:39:19;;;;;;;9.07;6.43;;;13.30;99.90;;;;;;5032279;28;20018;-77
2022/09/16 03:41:44;;;;;;;8.88;6.40;;;13.30;99.90;;;;;;5031767;28;20489;-77
2022/09/16 03:44:10;;;;;;;7.93;6.28;;;13.30;99.90;;;;;;5031684;28;20060;-77
2022/09/16 03:46:36;;;;;;;10.25;6.80;;;13.30;99.90;;;;;;5032232;28;20033;-77
2022/09/16 03:49:01;;;;;;;7.93;6.15;;;13.20;99.90;;;;;;5030123;28;20481;-77
2022/09/16 03:51:27;;;;;;;9.13;6.95;;;13.20;99.90;;;;;;5030759;28;20042;-77
2022/09/16 03:53:53;;;;;;;9.70;7.03;;;13.10;99.90;;;;;;5032025;28;20037;-77
2022/09/16 03:56:21;;;;;;;7.93;6.65;;;13.10;99.90;;;;;;5030919;28;20514;-76
2022/09/16 03:58:47;;;;;;;10.55;6.78;;;13.10;99.90;;;;;;5030401;28;20083;-76
2022/09/16 04:01:13;;;;;;;9.55;7.32;;;13.10;99.90;;;;;;5029380;28;20048;-76
2022/09/16 04:03:38;;;;;;;10.52;7.43;;;13.10;99.90;;;;;;5029668;28;20033;-76
2022/09/16 04:06:05;;;;;;;10.13;7.10;;;13.10;99.90;;;;;;5029393;28;20103;-76
2022/09/16 04:08:30;;;;;;;10.50;7.07;;;13.10;99.90;;;;;;5030035;28;20071;-76
2022/09/16 04:11:01;;;;;;;9.27;7.22;;;13.00;99.90;;;;;;5029749;28;20470;-76
2022/09/16 04:13:34;;;;;;;12.85;7.75;;;13.10;99.90;;;;;;5029685;28;20140;-76
2022/09/16 04:16:00;;;;;;;13.18;7.40;;;13.00;99.90;;;;;;5029606;28;20109;-76
2022/09/16 04:18:26;;;;;;;11.30;7.68;;;13.00;99.90;;;;;;5029103;28;20037;-76
2022/09/16 04:20:57;;;;;;;10.30;7.13;;;13.00;99.90;;;;;;5029701;28;20378;-76
2022/09/16 04:23:24;;;;;;;12.23;8.20;;;13.00;99.90;;;;;;5029354;28;20029;-76
2022/09/16 04:25:54;;;;;;;12.57;8.10;;;13.00;99.90;;;;;;5029217;28;20504;-77
2022/09/16 04:28:20;;;;;;;11.88;8.07;;;13.00;99.90;;;;;;5029166;28;20386;-76
2022/09/16 04:30:45;;;;;;;12.88;7.80;;;13.00;99.90;;;;;;5029577;28;20039;-76
2022/09/16 04:33:11;;;;;;;9.15;7.32;;;12.90;99.90;;;;;;5028892;28;20057;-76
2022/09/16 04:35:36;;;;;;;14.75;8.63;;;13.00;99.90;;;;;;5029202;28;20040;-76
2022/09/16 04:38:02;;;;;;;9.70;7.38;;;13.00;99.90;;;;;;5029300;28;20029;-76
2022/09/16 04:40:28;;;;;;;14.30;8.10;;;13.00;99.90;;;;;;5029186;28;20056;-76
2022/09/16 04:42:53;;;;;;;11.40;8.23;;;13.00;99.90;;;;;;5029603;28;20103;-76
2022/09/16 04:45:19;;;;;;;11.70;8.50;;;13.00;99.90;;;;;;5029018;28;20048;-76
2022/09/16 04:47:44;;;;;;;12.07;7.90;;;13.00;99.90;;;;;;5029203;28;20048;-76
2022/09/16 04:50:10;;;;;;;11.20;8.02;;;13.00;99.90;;;;;;5029659;28;20098;-76
2022/09/16 04:52:36;;;;;;;10.07;7.65;;;13.10;99.90;;;;;;5029633;28;20044;-76
2022/09/16 04:55:02;;;;;;;10.43;8.57;;;13.00;99.90;;;;;;5029803;28;20112;-76
2022/09/16 04:57:31;;;;;;;13.98;9.32;;;13.00;99.90;;;;;;5028281;28;20092;-76
2022/09/16 04:59:57;;;;;;;16.80;9.10;;;13.00;99.90;;;;;;5028793;28;20039;-76
2022/09/16 05:02:23;;;;;;;11.90;9.02;;;13.00;99.90;;;;;;5030163;28;20517;-77
2022/09/16 05:04:48;;;;;;;14.32;9.07;;;13.00;99.90;;;;;;5030105;28;20041;-77
2022/09/16 05:07:14;;;;;;;10.82;8.45;;;13.00;99.90;;;;;;5030018;28;20382;-77
2022/09/16 05:09:39;;;;;;;12.07;9.75;;;13.00;99.90;;;;;;5029327;28;20029;-77
2022/09/16 05:12:06;;;;;;;12.18;9.00;;;13.00;99.90;;;;;;5030527;28;20030;-77
2022/09/16 05:14:31;;;;;;;11.43;8.50;;;13.00;99.90;;;;;;5028036;28;20033;-77
2022/09/16 05:16:57;;;;;;;13.40;9.43;;;13.00;99.90;;;;;;5029860;28;20037;-77
2022/09/16 05:19:22;;;;;;;13.65;9.18;;;13.00;99.90;;;;;;5029313;28;20108;-77
2022/09/16 05:21:48;;;;;;;12.90;9.25;;;13.00;99.90;;;;;;5029809;28;20057;-77
2022/09/16 05:24:13;;;;;;;14.63;9.63;;;13.00;99.90;;;;;;5029791;28;20056;-77
2022/09/16 05:26:41;;;;;;;14.18;9.40;;;13.00;99.90;;;;;;5028300;28;20481;-77
2022/09/16 05:29:11;;;;;;;12.80;9.57;;;13.00;99.90;;;;;;5029704;28;20546;-77
2022/09/16 05:31:38;;;;;;;13.50;9.55;;;13.00;99.90;;;;;;5029299;28;20033;-77
2022/09/16 05:34:15;;;;;;;11.23;8.75;;;13.00;99.90;;;;;;5028184;28;20463;-77
2022/09/16 05:36:42;;;;;;;13.48;8.68;;;13.00;99.90;;;;;;5029339;28;20043;-77
2022/09/16 05:39:10;;;;;;;14.85;9.50;;;13.00;99.90;;;;;;5029564;28;20147;-77
2022/09/16 05:41:36;;;;;;;15.90;9.25;;;13.00;99.90;;;;;;5029868;28;20025;-77
2022/09/16 05:44:01;;;;;;;13.77;9.18;;;13.00;99.90;;;;;;5029311;28;20041;-77
2022/09/16 05:46:28;;;;;;;11.27;9.68;;;13.10;99.90;;;;;;5029195;28;20030;-77
2022/09/16 05:48:54;;;;;;;14.73;9.57;;;13.10;99.90;;;;;;5029245;28;20091;-77
2022/09/16 05:51:21;;;;;;;13.30;9.75;;;13.10;99.90;;;;;;5029068;28;20040;-76
2022/09/16 05:53:48;;;;;;;13.77;9.98;;;13.10;99.90;;;;;;5029053;28;20103;-76
2022/09/16 05:56:16;;;;;;;12.93;9.90;;;13.10;99.90;;;;;;5028657;28;20041;-77
2022/09/16 05:58:42;;;;;;;13.95;9.70;;;13.10;99.90;;;;;;5028961;28;20504;-76
2022/09/16 06:01:13;;;;;;;11.60;9.15;;;13.10;99.90;;;;;;5029449;28;20029;-76
2022/09/16 06:03:41;;;;;;;12.02;9.30;;;13.10;99.90;;;;;;5028854;28;20359;-77
2022/09/16 06:06:12;;;;;;;11.35;8.98;;;13.10;99.90;;;;;;5029089;28;20131;-76
2022/09/16 06:08:38;;;;;;;10.85;9.23;;;13.20;99.90;;;;;;5029404;28;20375;-77
2022/09/16 06:11:09;;;;;;;16.42;11.13;;;13.20;99.90;;;;;;5028354;28;20052;-76
2022/09/16 06:13:35;;;;;;;13.50;9.85;;;13.20;99.90;;;;;;5028509;28;20366;-76
2022/09/16 06:16:02;;;;;;;12.10;9.25;;;13.20;99.90;;;;;;5029038;28;20033;-76
2022/09/16 06:18:29;;;;;;;11.52;9.00;;;13.30;99.90;;;;;;5029064;28;20036;-77
2022/09/16 06:20:55;;;;;;;11.63;9.30;;;13.30;99.90;;;;;;5027332;28;20539;-76
2022/09/16 06:23:22;;;;;;;12.65;9.38;;;13.30;99.90;;;;;;5028693;28;20407;-76
2022/09/16 06:25:48;;;;;;;14.30;10.13;;;13.30;99.90;;;;;;5029004;28;20765;-76
2022/09/16 06:28:14;;;;;;;13.25;10.23;;;13.40;99.90;;;;;;5028960;28;20030;-76
2022/09/16 06:30:40;;;;;;;13.48;9.40;;;13.40;99.90;;;;;;5028468;28;20104;-76
2022/09/16 06:33:06;;;;;;;14.32;9.27;;;13.30;99.90;;;;;;5029352;28;20505;-76
2022/09/16 06:35:33;;;;;;;13.40;9.52;;;13.40;99.90;;;;;;5029182;28;20033;-76
2022/09/16 06:37:59;;;;;;;13.88;9.27;;;13.40;99.90;;;;;;5028642;28;20498;-76
2022/09/16 06:40:25;;;;;;;12.32;9.68;;;13.50;99.90;;;;;;5028572;28;20033;-76
2022/09/16 06:42:54;;;;;;;15.15;9.48;;;13.50;99.90;;;;;;5028630;28;20033;-77
2022/09/16 06:45:21;;;;;;;11.70;9.40;;;13.50;99.90;;;;;;5028061;28;20033;-76
2022/09/16 06:47:46;;;;;;;12.50;10.13;;;13.50;99.90;;;;;;5028034;28;20179;-76
2022/09/16 06:50:12;;;;;;;15.90;9.48;;;13.50;99.90;;;;;;5028428;28;20124;-76
2022/09/16 06:52:37;;;;;;;13.10;9.70;;;13.60;99.90;;;;;;5026930;28;20184;-76
2022/09/16 06:55:03;;;;;;;12.88;9.93;;;13.60;99.90;;;;;;5028226;28;20079;-76
2022/09/16 06:57:29;;;;;;;13.77;9.70;;;13.60;99.90;;;;;;5026824;28;20056;-77
2022/09/16 06:59:55;;;;;;;12.93;9.50;;;13.60;99.90;;;;;;5028176;28;20490;-77
2022/09/16 07:02:21;;;;;;;14.52;10.25;;;13.70;99.90;;;;;;5028705;28;20064;-77
2022/09/16 07:04:46;;;;;;;13.63;9.30;;;13.70;99.90;;;;;;5028610;28;20025;-77
2022/09/16 07:07:12;;;;;;;16.73;10.20;;;13.80;99.90;;;;;;5028242;28;20471;-76
2022/09/16 07:09:38;;;;;;;13.63;9.88;;;13.80;99.90;;;;;;5028010;28;20040;-76
2022/09/16 07:12:06;;;;;;;13.90;10.13;;;13.80;99.90;;;;;;5028277;28;20057;-76
2022/09/16 07:14:32;;;;;;;14.45;10.20;;;13.80;99.90;;;;;;5027997;28;20037;-76
2022/09/16 07:16:57;;;;;;;14.02;9.77;;;13.80;99.90;;;;;;5027053;28;20034;-76
2022/09/16 07:19:24;;;;;;;14.70;9.45;;;13.70;99.90;;;;;;5026875;28;20021;-76
2022/09/16 07:21:50;;;;;;;13.27;9.80;;;13.80;99.90;;;;;;5026963;28;20053;-76
2022/09/16 07:24:15;;;;;;;12.45;9.75;;;13.80;99.90;;;;;;5030570;28;20088;-76
2022/09/16 07:26:42;;;;;;;15.00;9.73;;;13.80;99.90;;;;;;5030255;28;20029;-76
2022/09/16 07:29:11;;;;;;;12.98;9.10;;;13.80;99.90;;;;;;5030823;28;20029;-76
2022/09/16 07:31:37;;;;;;;15.60;10.02;;;13.90;99.90;;;;;;5030370;28;20083;-76
2022/09/16 07:34:04;;;;;;;17.90;10.20;;;13.90;99.90;;;;;;5029391;28;20037;-79
2022/09/16 07:36:38;;;;;;;15.35;9.52;;;13.90;99.90;;;;;;5030328;28;20578;-80
2022/09/16 07:39:04;;;;;;;14.68;9.77;;;14.00;99.90;;;;;;5029985;28;20029;-79
2022/09/16 07:41:33;;;;;;;15.13;9.02;;;14.10;99.90;;;;;;5029670;28;20479;-79
2022/09/16 07:44:00;;;;;;;11.77;9.18;;;14.20;99.90;;;;;;5029730;28;20421;-79
2022/09/16 07:46:28;;;;;;;11.63;8.20;;;14.20;99.90;;;;;;5030302;28;20029;-80
2022/09/16 07:48:54;;;;;;;11.52;9.35;;;14.30;99.90;;;;;;5030184;28;20026;-79
2022/09/16 07:51:22;;;;;;;12.50;8.98;;;14.40;99.90;;;;;;5029838;28;20120;-79
2022/09/16 07:53:52;;;;;;;13.30;9.38;;;14.40;99.90;;;;;;5029727;28;20036;-79
2022/09/16 07:56:20;;;;;;;14.25;9.38;;;14.40;99.90;;;;;;5029450;28;20049;-79
2022/09/16 07:58:46;;;;;;;13.85;9.60;;;14.50;99.90;;;;;;5030539;28;20049;-79
2022/09/16 08:01:14;;;;;;;12.50;9.40;;;14.50;99.90;;;;;;5030154;28;20030;-79
2022/09/16 08:03:41;;;;;;;14.07;10.13;;;14.50;99.90;;;;;;5029738;28;20104;-79
2022/09/16 08:06:10;;;;;;;12.70;10.00;;;14.50;99.90;;;;;;5031196;28;20436;-79
2022/09/16 08:08:36;;;;;;;17.58;10.10;;;14.60;99.90;;;;;;5034228;28;20030;-79
2022/09/16 08:11:02;;;;;;;12.65;9.63;;;14.60;99.90;;;;;;5034101;28;20063;-79
2022/09/16 08:13:30;;;;;;;15.02;10.07;;;14.70;99.90;;;;;;5034066;28;20084;-79
2022/09/16 08:16:04;;;;;;;13.57;9.95;;;14.70;99.90;;;;;;5033700;28;20069;-79
2022/09/16 08:18:30;;;;;;;13.30;9.03;;;14.70;99.90;;;;;;5033207;28;20034;-79
2022/09/16 08:20:56;;;;;;;13.80;8.98;;;14.80;99.90;;;;;;5032397;28;20358;-79
2022/09/16 08:23:22;;;;;;;14.60;8.88;;;14.90;99.90;;;;;;5031411;28;20032;-79
2022/09/16 08:25:58;;;;;;;13.07;9.50;;;15.00;99.90;;;;;;5031261;28;20029;-79
2022/09/16 08:28:25;;;;;;;12.80;9.05;;;15.00;99.90;;;;;;5030371;28;20387;-79
2022/09/16 08:30:50;;;;;;;12.27;8.93;;;15.00;99.90;;;;;;5029936;28;20040;-79
2022/09/16 08:33:19;;;;;;;13.23;9.55;;;15.10;99.90;;;;;;5029734;28;20037;-79
2022/09/16 08:35:55;;;;;;;12.63;9.15;;;15.10;99.90;;;;;;5030719;28;20033;-80
2022/09/16 08:38:21;;;;;;;11.57;9.07;;;15.20;99.90;;;;;;5030883;28;20040;-79
2022/09/16 08:40:46;;;;;;;13.13;8.63;;;15.20;99.90;;;;;;5030829;28;20025;-79
2022/09/16 08:43:23;;;;;;;14.40;9.32;;;15.20;99.90;;;;;;5030806;28;20412;-79
2022/09/16 08:45:52;;;;;;;15.98;9.27;;;15.10;99.90;;;;;;5031165;28;20087;-79
2022/09/16 08:48:44;;;;;;;14.50;9.25;;;15.10;99.90;;;;;;5030882;28;20375;-79
2022/09/16 08:51:17;;;;;;;11.88;9.00;;;15.00;99.90;;;;;;5030701;28;20091;-79
2022/09/16 08:54:05;;;;;;;13.40;9.63;;;14.90;99.90;;;;;;5029890;28;20033;-79
2022/09/16 08:56:36;;;;;;;15.10;10.25;;;14.90;99.90;;;;;;5028444;28;20513;-79
2022/09/16 08:59:09;;;;;;;14.52;9.77;;;14.90;99.90;;;;;;5028836;28;20029;-79
2022/09/16 09:01:41;;;;;;;13.15;9.45;;;14.80;99.90;;;;;;5028366;28;20025;-79
2022/09/16 09:04:07;;;;;;;15.05;11.18;;;14.70;99.90;;;;;;5028613;28;20489;-79
2022/09/16 09:06:53;;;;;;;12.32;9.73;;;14.70;99.90;;;;;;5028558;28;20033;-79
2022/09/16 09:09:38;;;;;;;10.25;9.02;;;14.60;99.90;;;;;;5028264;28;20445;-79
2022/09/16 09:12:18;;;;;;;12.48;10.18;;;14.60;99.90;;;;;;5028862;28;20075;-79
2022/09/16 09:14:52;;;;;;;12.85;9.82;;;14.60;99.90;;;;;;5028141;28;20482;-79
2022/09/16 09:17:34;;;;;;;15.80;10.00;;;14.60;99.90;;;;;;5027021;28;20458;-79
2022/09/16 09:20:21;;;;;;;15.18;11.05;;;14.50;99.90;;;;;;5028485;28;20287;-79
2022/09/16 09:22:57;;;;;;;13.13;10.43;;;14.50;99.90;;;;;;5027990;28;20037;-79
2022/09/16 09:25:33;;;;;;;11.55;10.15;;;14.50;99.90;;;;;;5028142;28;20025;-79
2022/09/16 09:28:16;;;;;;;13.13;10.43;;;14.40;99.90;;;;;;5028206;28;20060;-80
2022/09/16 09:30:53;;;;;;;14.77;11.77;;;14.40;99.90;;;;;;5028212;28;20044;-80
2022/09/16 09:33:53;;;;;;;15.80;10.70;;;14.40;99.90;;;;;;5028593;28;20029;-80
2022/09/16 09:36:48;;;;;;;13.55;11.38;;;14.40;99.90;;;;;;5028497;28;20087;-80
2022/09/16 09:39:49;;;;;;;15.43;11.53;;;14.40;99.90;;;;;;5028513;28;20467;-79
2022/09/16 09:42:30;;;;;;;14.70;10.95;;;14.40;99.90;;;;;;5028339;28;20021;-79
2022/09/16 09:45:04;;;;;;;14.35;10.95;;;14.40;99.90;;;;;;5028084;28;20034;-80
2022/09/16 09:47:51;;;;;;;18.10;11.45;;;14.50;99.90;;;;;;5027583;28;20175;-78
2022/09/16 09:50:28;;;;;;;18.42;10.80;;;14.50;99.90;;;;;;5028474;28;20076;-77
2022/09/16 09:53:04;;;;;;;16.15;11.60;;;14.50;99.90;;;;;;5029326;28;20056;-78
2022/09/16 09:55:33;;;;;;;16.48;11.50;;;14.50;99.90;;;;;;5026588;28;20466;-78
2022/09/16 09:58:27;;;;;;;15.00;11.23;;;14.50;99.90;;;;;;5028217;28;20390;-78
2022/09/16 10:00:56;;;;;;;16.13;11.25;;;14.60;99.90;;;;;;5031166;28;20096;-77
2022/09/16 10:03:24;;;;;;;15.15;10.60;;;14.70;99.90;;;;;;5032970;28;20025;-78
2022/09/16 10:05:50;;;;;;;15.73;11.38;;;14.70;99.90;;;;;;5033025;28;20032;-78
2022/09/16 10:08:27;;;;;;;13.90;11.15;;;14.70;99.90;;;;;;5032699;28;20053;-78
2022/09/16 10:10:56;;;;;;;18.30;11.52;;;14.70;99.90;;;;;;5032315;28;20104;-78
2022/09/16 10:13:23;;;;;;;14.98;11.32;;;14.80;99.90;;;;;;5030415;28;20477;-78
2022/09/16 10:15:52;;;;;;;16.13;11.35;;;14.80;99.90;;;;;;5030957;28;20040;-78
2022/09/16 10:18:25;;;;;;;17.02;11.77;;;14.80;99.90;;;;;;5030320;28;20458;-78
2022/09/16 10:21:08;;;;;;;17.50;11.63;;;14.80;99.90;;;;;;5030442;28;20613;-77
2022/09/16 10:23:34;;;;;;;13.73;11.05;;;14.80;99.90;;;;;;5028997;28;20026;-78
2022/09/16 10:26:05;;;;;;;15.82;12.07;;;14.80;99.90;;;;;;5029822;28;20116;-78
2022/09/16 10:28:30;;;;;;;18.02;10.77;;;14.80;99.90;;;;;;5030100;28;20022;-77
2022/09/16 10:30:58;;;;;;;12.20;7.60;;;14.80;99.90;;;;;;5030271;28;20030;-78
2022/09/16 10:33:32;;;;;;;11.05;7.35;;;14.70;99.90;;;;;;5029965;28;20486;-78
2022/09/16 10:36:04;;;;;;;8.93;7.05;;;14.40;99.90;;;;;;5029967;28;20061;-77
2022/09/16 10:38:39;;;;;;;10.50;8.25;;;14.10;99.90;;;;;;5030281;28;20029;-77
2022/09/16 10:41:18;;;;;;;12.80;8.70;;;13.90;99.90;;;;;;5030121;28;20025;-78
2022/09/16 10:43:50;;;;;;;14.38;8.95;;;13.60;99.90;;;;;;5030972;28;20032;-77
2022/09/16 10:46:17;;;;;;;10.50;7.90;;;13.40;99.90;;;;;;5030688;28;20029;-77
2022/09/16 10:48:44;;;;;;;10.93;8.20;;;13.30;99.90;;;;;;5029010;28;20029;-77
2022/09/16 10:51:32;;;;;;;14.98;10.05;;;13.20;99.90;;;;;;5029019;28;20084;-77
2022/09/16 10:54:00;;;;;;;14.38;8.90;;;13.10;99.90;;;;;;5028663;28;20753;-77
2022/09/16 10:56:29;;;;;;;13.10;8.20;;;12.90;99.90;;;;;;5028632;28;20651;-78
2022/09/16 10:59:01;;;;;;;11.63;8.43;;;12.90;99.90;;;;;;5032647;28;20079;-77
2022/09/16 11:01:51;;;;;;;9.73;6.53;;;12.80;99.90;;;;;;5032690;28;20435;-77
2022/09/16 11:04:40;;;;;;;11.18;7.20;;;12.60;99.90;;;;;;5033080;28;20116;-77
2022/09/16 11:07:27;;;;;;;10.80;6.25;;;12.50;99.90;;;;;;5033571;28;20026;-77
2022/09/16 11:10:18;;;;;;;10.15;5.78;;;12.40;99.90;;;;;;5032914;28;20017;-77
2022/09/16 11:13:03;;;;;;;9.90;6.22;;;12.30;99.90;;;;;;5032878;28;20520;-77
2022/09/16 11:16:05;;;;;;;14.25;7.28;;;12.30;99.90;;;;;;5033062;28;20028;-78
2022/09/16 11:18:54;;;;;;;11.10;7.60;;;12.30;99.90;;;;;;5033537;28;20034;-77
2022/09/16 11:21:39;;;;;;;14.57;7.88;;;12.30;99.90;;;;;;5033911;28;20026;-77
2022/09/16 11:24:25;;;;;;;9.97;7.03;;;12.30;99.90;;;;;;5033720;28;20463;-77
2022/09/16 11:27:10;;;;;;;10.13;7.03;;;12.20;99.90;;;;;;5033577;28;20762;-77
2022/09/16 11:30:02;;;;;;;7.30;5.00;;;12.20;99.90;;;;;;5033245;28;20037;-77
2022/09/16 11:32:42;;;;;;;10.02;6.00;;;12.10;99.90;;;;;;5033601;28;20037;-77
2022/09/16 11:35:28;;;;;;;10.43;4.72;;;12.00;99.90;;;;;;5033516;28;20438;-77
2022/09/16 11:38:04;;;;;;;7.80;4.75;;;12.00;99.90;;;;;;5033639;28;20371;-77
2022/09/16 11:40:40;;;;;;;7.88;4.95;;;11.90;99.90;;;;;;5033433;28;20083;-77
2022/09/16 11:43:47;;;;;;;9.07;5.13;;;11.90;99.90;;;;;;5033072;28;20029;-77
2022/09/16 11:46:27;;;;;;;6.68;4.72;;;11.90;99.90;;;;;;5032394;28;20482;-77
2022/09/16 11:49:24;;;;;;;6.85;5.10;;;12.00;99.90;;;;;;5032489;28;20382;-77
2022/09/16 11:52:24;;;;;;;8.93;5.70;;;12.00;99.90;;;;;;5033043;28;20033;-77
2022/09/16 11:55:14;;;;;;;9.63;5.80;;;12.00;99.90;;;;;;5032845;28;20033;-76
2022/09/16 11:57:45;;;;;;;10.15;5.78;;;12.10;99.90;;;;;;5032942;28;20045;-77
2022/09/16 12:00:16;;;;;;;9.73;5.97;;;12.10;99.90;;;;;;5032622;28;20021;-77
2022/09/16 12:02:51;;;;;;;11.35;6.50;;;12.20;99.90;;;;;;5032219;28;20017;-77
2022/09/16 12:05:29;;;;;;;8.48;6.15;;;12.30;99.90;;;;;;5032604;28;20508;-77
2022/09/16 12:08:21;;;;;;;8.90;6.95;;;12.40;99.90;;;;;;5031753;28;20052;-77
2022/09/16 12:10:55;;;;;;;9.68;6.90;;;12.40;99.90;;;;;;5031596;28;20383;-76
2022/09/16 12:13:27;;;;;;;12.05;7.47;;;12.40;99.90;;;;;;5032108;28;20037;-77
2022/09/16 12:16:01;;;;;;;7.85;6.88;;;12.40;99.90;;;;;;5031873;28;20066;-77
2022/09/16 12:18:41;;;;;;;12.13;6.72;;;12.40;99.90;;;;;;5032298;28;20026;-77
2022/09/16 12:21:35;;;;;;;9.23;6.13;;;12.40;99.90;;;;;;5031583;28;20021;-77
2022/09/16 12:24:12;;;;;;;8.57;5.72;;;12.40;99.90;;;;;;5032408;28;20068;-77
2022/09/16 12:26:44;;;;;;;8.52;5.28;;;12.40;99.90;;;;;;5032107;28;20462;-77
2022/09/16 12:29:16;;;;;;;7.43;4.88;;;12.40;99.90;;;;;;5031663;28;20021;-77
2022/09/16 12:31:59;;;;;;;7.88;4.60;;;12.40;99.90;;;;;;5031987;28;20498;-77
2022/09/16 12:34:37;;;;;;;5.72;4.20;;;12.30;99.90;;;;;;5031936;28;20045;-77
2022/09/16 12:37:35;;;;;;;6.32;4.47;;;12.30;99.90;;;;;;5031170;28;20055;-77
2022/09/16 12:40:03;;;;;;;6.22;3.20;;;12.30;99.90;;;;;;5032148;28;20014;-77
2022/09/16 12:42:47;;;;;;;6.97;4.63;;;12.20;99.90;;;;;;5032277;28;20027;-77
2022/09/16 12:45:39;;;;;;;5.47;3.88;;;12.10;99.90;;;;;;5032361;28;20159;-77
2022/09/16 12:48:35;;;;;;;7.90;3.65;;;12.20;99.90;;;;;;5032546;28;20033;-77
2022/09/16 12:51:07;;;;;;;;;;;12.20;99.90;;;;;;5032383;28;20037;-77
2022/09/16 12:53:59;;;;;;;5.72;3.53;;;12.20;99.90;;;;;;5031651;28;19955;-77
2022/09/16 12:56:43;;;;;;;4.85;3.38;;;12.20;99.90;;;;;;5031447;28;20053;-77
2022/09/16 12:59:36;;;;;;;5.65;3.50;;;12.10;99.90;;;;;;5031421;28;20053;-77
2022/09/16 13:02:17;;;;;;;5.05;3.20;;;12.10;99.90;;;;;;5031276;28;20032;-77
2022/09/16 13:04:53;;;;;;;5.70;3.63;;;12.20;99.90;;;;;;5031537;28;20437;-77
2022/09/16 13:07:33;;;;;;;5.65;4.13;;;12.20;99.90;;;;;;5031564;28;20545;-77
2022/09/16 13:10:14;;;;;;;5.82;3.63;;;12.20;99.90;;;;;;5030896;28;20504;-77